createdAt,value
2023-02-01T00:01:16.307Z,101173.69
2023-02-01T00:03:44.401Z,101150.78
2023-02-01T00:06:12.217Z,101154.31
2023-02-01T00:08:39.944Z,101162.22
2023-02-01T00:11:12.585Z,101150.66
2023-02-01T00:13:42.681Z,101153.31
2023-02-01T00:16:22.921Z,101147.13
2023-02-01T00:18:53.565Z,101138.34
2023-02-01T00:21:22.513Z,101142.78
2023-02-01T00:23:50.240Z,101146.38
2023-02-01T00:26:31.743Z,101138.34
2023-02-01T00:29:00.648Z,101135.81
2023-02-01T00:31:29.688Z,101141.94
2023-02-01T00:33:57.938Z,101125.22
2023-02-01T00:36:25.991Z,101144.63
2023-02-01T00:38:53.798Z,101140.25
2023-02-01T00:41:23.232Z,101127.00
2023-02-01T00:43:52.146Z,101121.69
2023-02-01T00:46:22.461Z,101120.81
2023-02-01T00:48:50.592Z,101125.22
2023-02-01T00:51:25.127Z,101119.94
2023-02-01T00:53:53.870Z,101129.66
2023-02-01T00:56:22.484Z,101130.50
2023-02-01T00:58:50.706Z,101133.16
2023-02-01T01:01:23.106Z,101135.78
2023-02-01T01:03:58.647Z,101137.53
2023-02-01T01:06:31.108Z,101148.13
2023-02-01T01:09:01.728Z,101147.25
2023-02-01T01:11:33.119Z,101151.59
2023-02-01T01:14:01.817Z,101156.03
2023-02-01T01:16:32.529Z,101168.34
2023-02-01T01:19:00.889Z,101152.47
2023-02-01T01:21:30.519Z,101159.53
2023-02-01T01:23:59.088Z,101153.31
2023-02-01T01:26:29.865Z,101156.78
2023-02-01T01:28:59.946Z,101163.84
2023-02-01T01:31:29.251Z,101156.72
2023-02-01T01:34:00.325Z,101159.34
2023-02-01T01:36:29.728Z,101157.78
2023-02-01T01:38:57.828Z,101162.97
2023-02-01T01:41:31.619Z,101159.38
2023-02-01T01:44:05.894Z,101157.53
2023-02-01T01:46:39.097Z,101161.03
2023-02-01T01:49:16.389Z,101161.88
2023-02-01T01:52:02.054Z,101152.13
2023-02-01T01:54:39.766Z,101141.56
2023-02-01T01:57:26.931Z,101142.31
2023-02-01T02:00:04.048Z,101132.63
2023-02-01T02:02:43.944Z,101129.06
2023-02-01T02:05:13.363Z,101127.28
2023-02-01T02:07:47.282Z,101121.91
2023-02-01T02:10:16.724Z,101122.75
2023-02-01T02:12:48.778Z,101103.34
2023-02-01T02:15:18.049Z,101106.88
2023-02-01T02:18:12.106Z,101114.78
2023-02-01T02:21:18.584Z,101118.41
2023-02-01T02:24:29.183Z,101117.53
2023-02-01T02:27:23.908Z,101113.16
2023-02-01T02:30:29.970Z,101109.56
2023-02-01T02:33:23.194Z,101080.47
2023-02-01T02:36:19.088Z,101058.47
2023-02-01T02:39:14.103Z,101093.78
2023-02-01T02:42:27.509Z,101095.59
2023-02-01T02:46:01.440Z,101102.78
2023-02-01T02:49:06.280Z,101099.34
2023-02-01T02:52:38.195Z,101089.63
2023-02-01T02:55:09.557Z,101085.31
2023-02-01T02:58:01.383Z,101092.34
2023-02-01T03:00:52.425Z,101094.13
2023-02-01T03:03:39.059Z,101089.78
2023-02-01T03:06:18.255Z,101085.28
2023-02-01T03:08:47.244Z,101084.34
2023-02-01T03:11:16.767Z,101071.03
2023-02-01T03:14:01.704Z,101076.25
2023-02-01T03:16:34.827Z,101072.78
2023-02-01T03:19:09.968Z,101078.00
2023-02-01T03:22:05.479Z,101061.16
2023-02-01T03:24:47.234Z,101040.78
2023-02-01T03:27:47.860Z,101034.66
2023-02-01T03:30:23.730Z,101031.06
2023-02-01T03:33:02.984Z,101024.91
2023-02-01T03:35:55.110Z,101030.16
2023-02-01T03:38:35.565Z,101034.50
2023-02-01T03:41:19.312Z,101041.63
2023-02-01T03:44:33.556Z,101046.13
2023-02-01T03:47:11.448Z,101042.63
2023-02-01T03:50:05.409Z,101027.63
2023-02-01T03:52:42.040Z,101052.41
2023-02-01T03:55:13.528Z,101041.84
2023-02-01T03:57:50.591Z,101040.81
2023-02-01T04:00:25.545Z,101031.16
2023-02-01T04:02:54.460Z,101042.66
2023-02-01T04:05:23.045Z,101071.03
2023-02-01T04:07:57.860Z,101078.13
2023-02-01T04:10:26.067Z,101081.69
2023-02-01T04:12:53.848Z,101083.47
2023-02-01T04:15:21.620Z,101079.09
2023-02-01T04:17:49.792Z,101077.41
2023-02-01T04:20:17.775Z,101072.97
2023-02-01T04:22:45.735Z,101071.22
2023-02-01T04:25:13.549Z,101073.84
2023-02-01T04:27:41.750Z,101040.38
2023-02-01T04:30:13.337Z,101049.06
2023-02-01T04:32:41.141Z,101041.13
2023-02-01T04:35:09.934Z,101040.25
2023-02-01T04:37:37.803Z,101037.69
2023-02-01T04:40:06.395Z,101046.44
2023-02-01T04:42:34.275Z,101047.31
2023-02-01T04:45:02.272Z,101051.72
2023-02-01T04:47:30.577Z,101054.38
2023-02-01T04:49:58.484Z,101053.47
2023-02-01T04:52:26.297Z,101062.31
2023-02-01T04:54:56.580Z,101062.34
2023-02-01T04:57:25.249Z,101055.38
2023-02-01T04:59:53.240Z,101060.69
2023-02-01T05:02:21.116Z,101058.91
2023-02-01T05:04:48.864Z,101047.50
2023-02-01T05:07:16.698Z,101052.78
2023-02-01T05:09:44.425Z,101053.69
2023-02-01T05:12:32.646Z,101046.66
2023-02-01T05:15:00.554Z,101038.81
2023-02-01T05:17:28.275Z,101051.16
2023-02-01T05:19:56.269Z,101057.34
2023-02-01T05:22:23.987Z,101079.47
2023-02-01T05:24:51.710Z,101083.94
2023-02-01T05:27:19.485Z,101085.69
2023-02-01T05:29:47.346Z,101104.25
2023-02-01T05:32:22.979Z,101098.91
2023-02-01T05:34:51.478Z,101104.19
2023-02-01T05:37:19.350Z,101108.53
2023-02-01T05:39:47.189Z,101098.84
2023-02-01T05:42:15.251Z,101094.31
2023-02-01T05:44:43.372Z,101077.56
2023-02-01T05:47:11.357Z,101081.03
2023-02-01T05:49:39.240Z,101098.72
2023-02-01T05:52:07.302Z,101086.31
2023-02-01T05:54:34.993Z,101083.66
2023-02-01T05:57:03.016Z,101093.34
2023-02-01T05:59:30.842Z,101085.34
2023-02-01T06:01:58.989Z,101089.78
2023-02-01T06:04:26.728Z,101097.69
2023-02-01T06:06:54.513Z,101098.59
2023-02-01T06:09:22.386Z,101090.75
2023-02-01T06:11:50.212Z,101082.78
2023-02-01T06:14:18.253Z,101090.69
2023-02-01T06:16:47.508Z,101078.44
2023-02-01T06:19:15.491Z,101086.28
2023-02-01T06:21:43.344Z,101078.41
2023-02-01T06:24:11.718Z,101079.25
2023-02-01T06:26:40.942Z,101065.13
2023-02-01T06:29:11.584Z,101073.03
2023-02-01T06:31:39.523Z,101068.69
2023-02-01T06:34:07.408Z,101084.53
2023-02-01T06:36:35.166Z,101092.53
2023-02-01T06:39:03.503Z,101096.06
2023-02-01T06:41:31.200Z,101096.97
2023-02-01T06:43:59.027Z,101100.50
2023-02-01T06:46:26.889Z,101118.19
2023-02-01T06:48:55.276Z,101129.66
2023-02-01T06:51:27.280Z,101141.13
2023-02-01T06:53:55.326Z,101141.13
2023-02-01T06:56:23.788Z,101128.75
2023-02-01T06:58:52.061Z,101111.13
2023-02-01T07:01:20.252Z,101107.50
2023-02-01T07:03:54.428Z,101124.25
2023-02-01T07:06:22.443Z,101117.22
2023-02-01T07:08:51.019Z,101108.34
2023-02-01T07:11:19.888Z,101105.63
2023-02-01T07:13:47.651Z,101112.75
2023-02-01T07:16:21.284Z,101122.44
2023-02-01T07:18:51.748Z,101122.56
2023-02-01T07:21:20.974Z,101122.53
2023-02-01T07:23:48.871Z,101122.56
2023-02-01T07:26:17.548Z,101119.03
2023-02-01T07:28:45.560Z,101118.19
2023-02-01T07:31:19.201Z,101119.91
2023-02-01T07:33:47.487Z,101124.22
2023-02-01T07:36:18.061Z,101126.81
2023-02-01T07:38:48.075Z,101133.06
2023-02-01T07:41:16.612Z,101125.97
2023-02-01T07:43:44.508Z,101116.34
2023-02-01T07:46:12.832Z,101121.59
2023-02-01T07:48:40.564Z,101117.16
2023-02-01T07:51:15.044Z,101116.19
2023-02-01T07:53:44.454Z,101110.94
2023-02-01T07:56:16.105Z,101097.75
2023-02-01T07:58:44.328Z,101116.16
2023-02-01T08:01:26.999Z,101116.13
2023-02-01T08:04:01.852Z,101117.06
2023-02-01T08:06:35.588Z,101132.00
2023-02-01T08:09:08.755Z,101125.00
2023-02-01T08:11:38.718Z,101135.66
2023-02-01T08:14:07.554Z,101131.19
2023-02-01T08:16:37.407Z,101135.66
2023-02-01T08:19:05.172Z,101145.34
2023-02-01T08:21:39.219Z,101146.19
2023-02-01T08:24:10.027Z,101141.81
2023-02-01T08:26:38.189Z,101149.78
2023-02-01T08:29:08.774Z,101153.38
2023-02-01T08:31:41.630Z,101173.66
2023-02-01T08:34:09.826Z,101170.97
2023-02-01T08:36:39.168Z,101173.63
2023-02-01T08:39:10.024Z,101165.72
2023-02-01T08:41:38.466Z,101168.38
2023-02-01T08:44:07.971Z,101172.75
2023-02-01T08:46:35.750Z,101175.38
2023-02-01T08:49:03.819Z,101178.88
2023-02-01T08:51:51.562Z,101176.22
2023-02-01T08:54:19.291Z,101178.81
2023-02-01T08:56:47.073Z,101159.44
2023-02-01T08:59:14.895Z,101164.69
2023-02-01T09:01:43.040Z,101159.38
2023-02-01T09:04:11.084Z,101148.72
2023-02-01T09:06:42.481Z,101163.69
2023-02-01T09:09:10.283Z,101154.84
2023-02-01T09:11:38.049Z,101155.72
2023-02-01T09:14:05.867Z,101153.94
2023-02-01T09:16:33.799Z,101155.59
2023-02-01T09:19:24.575Z,101150.28
2023-02-01T09:21:49.583Z,101150.28
2023-02-01T09:24:17.397Z,101150.22
2023-02-01T09:26:45.296Z,101150.22
2023-02-01T09:29:13.252Z,101158.16
2023-02-01T09:31:49.766Z,101154.53
2023-02-01T09:34:23.339Z,101151.03
2023-02-01T09:36:51.736Z,101146.59
2023-02-01T09:39:19.474Z,101158.06
2023-02-01T09:42:15.235Z,101168.66
2023-02-01T09:45:14.936Z,101163.31
2023-02-01T09:47:52.236Z,101186.34
2023-02-01T09:50:42.947Z,101183.66
2023-02-01T09:53:35.658Z,101194.31
2023-02-01T09:56:22.663Z,101194.19
2023-02-01T09:59:02.939Z,101196.94
2023-02-01T10:01:32.273Z,101210.16
2023-02-01T10:04:11.244Z,101214.50
2023-02-01T10:07:17.647Z,101230.38
2023-02-01T10:10:01.427Z,101231.25
2023-02-01T10:13:00.134Z,101235.56
2023-02-01T10:15:42.622Z,101222.19
2023-02-01T10:18:44.038Z,101238.88
2023-02-01T10:21:19.436Z,101237.09
2023-02-01T10:24:17.798Z,101237.81
2023-02-01T10:27:08.373Z,101248.25
2023-02-01T10:29:42.061Z,101240.16
2023-02-01T10:32:31.413Z,101236.47
2023-02-01T10:35:25.761Z,101243.53
2023-02-01T10:37:56.804Z,101237.34
2023-02-01T10:40:27.429Z,101230.25
2023-02-01T10:43:01.984Z,101232.81
2023-02-01T10:45:33.652Z,101237.16
2023-02-01T10:48:05.063Z,101232.66
2023-02-01T10:51:00.486Z,101232.00
2023-02-01T10:54:02.904Z,101234.47
2023-02-01T10:56:32.432Z,101218.66
2023-02-01T10:59:08.090Z,101217.59
2023-02-01T11:01:42.170Z,101227.31
2023-02-01T11:04:29.803Z,101221.13
2023-02-01T11:07:24.615Z,101215.81
2023-02-01T11:09:59.170Z,101209.63
2023-02-01T11:12:33.724Z,101197.22
2023-02-01T11:15:25.415Z,101189.31
2023-02-01T11:17:57.160Z,101179.53
2023-02-01T11:20:34.577Z,101180.34
2023-02-01T11:23:03.387Z,101167.13
2023-02-01T11:25:36.268Z,101159.06
2023-02-01T11:28:04.539Z,101157.41
2023-02-01T11:30:41.204Z,101152.00
2023-02-01T11:33:18.477Z,101159.13
2023-02-01T11:35:48.926Z,101158.25
2023-02-01T11:38:32.513Z,101149.38
2023-02-01T11:41:27.642Z,101148.50
2023-02-01T11:44:02.161Z,101143.16
2023-02-01T11:46:33.877Z,101147.59
2023-02-01T11:49:28.431Z,101156.38
2023-02-01T11:52:07.975Z,101151.94
2023-02-01T11:55:22.037Z,101141.31
2023-02-01T11:58:25.235Z,101156.38
2023-02-01T12:01:11.400Z,101145.78
2023-02-01T12:04:02.659Z,101141.31
2023-02-01T12:06:36.266Z,101144.84
2023-02-01T12:09:22.571Z,101150.06
2023-02-01T12:12:34.895Z,101151.00
2023-02-01T12:15:36.718Z,101152.69
2023-02-01T12:18:36.421Z,101157.06
2023-02-01T12:21:43.194Z,101149.19
2023-02-01T12:24:44.033Z,101162.38
2023-02-01T12:27:29.687Z,101153.50
2023-02-01T12:30:35.455Z,101151.72
2023-02-01T12:33:38.216Z,101149.06
2023-02-01T12:36:37.347Z,101153.38
2023-02-01T12:39:26.287Z,101156.88
2023-02-01T12:42:24.670Z,101156.84
2023-02-01T12:45:16.928Z,101163.88
2023-02-01T12:47:54.101Z,101156.72
2023-02-01T12:50:47.120Z,101143.41
2023-02-01T12:54:04.635Z,101143.31
2023-02-01T12:56:46.390Z,101137.13
2023-02-01T12:59:39.165Z,101132.59
2023-02-01T13:02:34.275Z,101132.69
2023-02-01T13:05:50.217Z,101130.09
2023-02-01T13:08:44.469Z,101128.22
2023-02-01T13:11:39.593Z,101124.66
2023-02-01T13:14:25.601Z,101127.34
2023-02-01T13:17:05.722Z,101119.38
2023-02-01T13:20:09.866Z,101114.06
2023-02-01T13:22:44.594Z,101111.31
2023-02-01T13:25:25.381Z,101101.47
2023-02-01T13:28:28.343Z,101093.50
2023-02-01T13:31:30.730Z,101081.03
2023-02-01T13:34:04.124Z,101086.25
2023-02-01T13:37:06.306Z,101081.81
2023-02-01T13:40:10.829Z,101087.16
2023-02-01T13:42:58.621Z,101088.03
2023-02-01T13:45:35.932Z,101080.16
2023-02-01T13:48:07.880Z,101080.97
2023-02-01T13:50:42.074Z,101072.09
2023-02-01T13:53:12.777Z,101070.28
2023-02-01T13:56:00.860Z,101079.13
2023-02-01T13:58:39.776Z,101078.28
2023-02-01T14:01:22.747Z,101084.41
2023-02-01T14:03:56.464Z,101089.72
2023-02-01T14:06:27.326Z,101091.47
2023-02-01T14:09:32.516Z,101082.53
2023-02-01T14:12:50.281Z,101084.47
2023-02-01T14:15:28.339Z,101080.88
2023-02-01T14:17:56.811Z,101082.66
2023-02-01T14:20:44.878Z,101091.50
2023-02-01T14:23:18.121Z,101099.56
2023-02-01T14:25:48.090Z,101105.88
2023-02-01T14:28:30.580Z,101098.84
2023-02-01T14:31:00.529Z,101100.56
2023-02-01T14:33:29.501Z,101118.28
2023-02-01T14:36:14.205Z,101094.28
2023-02-01T14:38:51.496Z,101089.09
2023-02-01T14:41:32.698Z,101096.91
2023-02-01T14:44:03.622Z,101100.44
2023-02-01T14:47:04.202Z,101103.94
2023-02-01T14:50:03.564Z,101100.38
2023-02-01T14:53:13.826Z,101099.44
2023-02-01T14:55:50.578Z,101096.78
2023-02-01T14:58:53.461Z,101107.34
2023-02-01T15:01:32.468Z,101097.56
2023-02-01T15:04:22.902Z,101100.13
2023-02-01T15:06:58.636Z,101098.38
2023-02-01T15:09:55.269Z,101099.09
2023-02-01T15:12:32.888Z,101099.16
2023-02-01T15:15:18.096Z,101097.25
2023-02-01T15:17:59.698Z,101092.88
2023-02-01T15:20:34.045Z,101094.59
2023-02-01T15:23:06.715Z,101083.25
2023-02-01T15:25:39.506Z,101103.50
2023-02-01T15:28:15.063Z,101096.41
2023-02-01T15:31:04.194Z,101102.69
2023-02-01T15:33:34.641Z,101119.41
2023-02-01T15:36:23.424Z,101107.84
2023-02-01T15:39:19.268Z,101115.78
2023-02-01T15:42:19.636Z,101117.63
2023-02-01T15:44:47.830Z,101114.25
2023-02-01T15:47:26.780Z,101108.78
2023-02-01T15:49:58.042Z,101115.13
2023-02-01T15:52:32.773Z,101115.00
2023-02-01T15:55:06.892Z,101117.63
2023-02-01T15:57:40.395Z,101107.94
2023-02-01T16:00:31.071Z,101103.50
2023-02-01T16:03:26.709Z,101103.66
2023-02-01T16:06:01.043Z,101103.78
2023-02-01T16:08:32.935Z,101103.69
2023-02-01T16:11:09.689Z,101108.09
2023-02-01T16:13:37.651Z,101104.66
2023-02-01T16:16:09.058Z,101115.09
2023-02-01T16:18:36.810Z,101114.13
2023-02-01T16:21:04.887Z,101118.44
2023-02-01T16:23:32.956Z,101127.19
2023-02-01T16:26:00.819Z,101111.38
2023-02-01T16:28:28.845Z,101121.81
2023-02-01T16:30:56.771Z,101110.44
2023-02-01T16:33:25.458Z,101125.31
2023-02-01T16:35:56.756Z,101120.13
2023-02-01T16:38:24.795Z,101131.53
2023-02-01T16:40:52.633Z,101138.59
2023-02-01T16:43:26.603Z,101140.34
2023-02-01T16:45:59.831Z,101138.59
2023-02-01T16:48:32.874Z,101142.13
2023-02-01T16:51:13.475Z,101134.25
2023-02-01T16:53:53.537Z,101142.22
2023-02-01T16:56:31.071Z,101134.25
2023-02-01T16:58:59.909Z,101128.06
2023-02-01T17:01:28.279Z,101128.09
2023-02-01T17:03:56.992Z,101127.09
2023-02-01T17:06:28.451Z,101130.63
2023-02-01T17:09:03.214Z,101127.19
2023-02-01T17:11:31.346Z,101122.88
2023-02-01T17:14:19.161Z,101133.63
2023-02-01T17:16:51.500Z,101131.16
2023-02-01T17:19:24.365Z,101125.00
2023-02-01T17:21:59.355Z,101124.28
2023-02-01T17:24:46.559Z,101119.06
2023-02-01T17:27:18.019Z,101100.66
2023-02-01T17:29:47.116Z,101120.16
2023-02-01T17:32:23.456Z,101129.88
2023-02-01T17:34:52.101Z,101120.19
2023-02-01T17:37:33.621Z,101128.16
2023-02-01T17:40:02.007Z,101133.63
2023-02-01T17:42:31.049Z,101126.53
2023-02-01T17:45:11.750Z,101119.47
2023-02-01T17:47:39.656Z,101132.94
2023-02-01T17:50:08.427Z,101119.63
2023-02-01T17:52:36.559Z,101136.31
2023-02-01T17:55:23.445Z,101129.19
2023-02-01T17:57:51.606Z,101139.88
2023-02-01T18:00:20.608Z,101132.69
2023-02-01T18:02:48.553Z,101142.41
2023-02-01T18:05:50.783Z,101140.53
2023-02-01T18:08:21.579Z,101144.19
2023-02-01T18:11:00.784Z,101123.78
2023-02-01T18:13:31.144Z,101138.78
2023-02-01T18:16:03.613Z,101125.53
2023-02-01T18:18:33.671Z,101141.38
2023-02-01T18:21:01.770Z,101133.41
2023-02-01T18:23:29.953Z,101135.19
2023-02-01T18:25:57.912Z,101131.63
2023-02-01T18:28:25.659Z,101117.56
2023-02-01T18:30:53.564Z,101137.00
2023-02-01T18:33:21.668Z,101129.03
2023-02-01T18:35:50.313Z,101131.69
2023-02-01T18:38:18.459Z,101138.69
2023-02-01T18:40:52.517Z,101128.97
2023-02-01T18:43:21.187Z,101132.59
2023-02-01T18:45:49.739Z,101117.56
2023-02-01T18:48:21.273Z,101113.06
2023-02-01T18:50:52.062Z,101106.09
2023-02-01T18:53:21.749Z,101112.09
2023-02-01T18:55:50.294Z,101111.19
2023-02-01T18:58:18.553Z,101105.00
2023-02-01T19:00:47.512Z,101114.81
2023-02-01T19:03:16.591Z,101114.84
2023-02-01T19:05:45.634Z,101114.84
2023-02-01T19:08:13.777Z,101108.72
2023-02-01T19:10:44.807Z,101111.28
2023-02-01T19:13:13.678Z,101111.38
2023-02-01T19:15:42.781Z,101113.84
2023-02-01T19:18:10.897Z,101125.34
2023-02-01T19:20:41.354Z,101120.94
2023-02-01T19:23:09.386Z,101126.28
2023-02-01T19:25:37.837Z,101129.78
2023-02-01T19:28:06.118Z,101147.53
2023-02-01T19:30:34.013Z,101140.44
2023-02-01T19:33:04.390Z,101150.16
2023-02-01T19:35:32.981Z,101143.91
2023-02-01T19:38:00.995Z,101149.19
2023-02-01T19:40:29.024Z,101141.28
2023-02-01T19:42:56.988Z,101154.50
2023-02-01T19:45:25.253Z,101142.13
2023-02-01T19:47:53.534Z,101137.69
2023-02-01T19:50:22.661Z,101139.38
2023-02-01T19:52:50.881Z,101140.28
2023-02-01T19:55:18.733Z,101145.59
2023-02-01T19:57:46.653Z,101147.25
2023-02-01T20:00:17.029Z,101155.19
2023-02-01T20:02:44.846Z,101157.03
2023-02-01T20:05:12.860Z,101161.28
2023-02-01T20:07:41.563Z,101162.28
2023-02-01T20:10:10.070Z,101167.47
2023-02-01T20:12:37.993Z,101163.94
2023-02-01T20:15:08.096Z,101175.41
2023-02-01T20:17:36.491Z,101176.34
2023-02-01T20:20:04.991Z,101185.22
2023-02-01T20:22:32.880Z,101176.44
2023-02-01T20:25:03.709Z,101186.13
2023-02-01T20:27:32.396Z,101192.38
2023-02-01T20:30:00.593Z,101190.56
2023-02-01T20:32:28.346Z,101191.50
2023-02-01T20:34:56.140Z,101188.09
2023-02-01T20:37:24.277Z,101188.06
2023-02-01T20:39:52.087Z,101200.38
2023-02-01T20:42:19.867Z,101192.47
2023-02-01T20:44:47.633Z,101204.75
2023-02-01T20:47:15.504Z,101198.50
2023-02-01T20:49:43.326Z,101206.41
2023-02-01T20:52:11.133Z,101202.00
2023-02-01T20:54:38.933Z,101187.00
2023-02-01T20:57:06.758Z,101194.06
2023-02-01T20:59:34.573Z,101193.19
2023-02-01T21:02:02.985Z,101195.84
2023-02-01T21:04:32.936Z,101188.84
2023-02-01T21:07:02.849Z,101194.09
2023-02-01T21:09:30.946Z,101187.88
2023-02-01T21:11:59.469Z,101177.25
2023-02-01T21:14:27.477Z,101161.38
2023-02-01T21:16:55.402Z,101164.91
2023-02-01T21:19:25.276Z,101156.06
2023-02-01T21:21:53.966Z,101151.59
2023-02-01T21:24:21.947Z,101155.22
2023-02-01T21:26:49.858Z,101156.16
2023-02-01T21:29:17.887Z,101130.63
2023-02-01T21:31:45.700Z,101158.84
2023-02-01T21:34:13.748Z,101152.72
2023-02-01T21:36:41.538Z,101152.75
2023-02-01T21:39:11.503Z,101159.03
2023-02-01T21:41:58.442Z,101161.69
2023-02-01T21:44:26.387Z,101152.97
2023-02-01T21:46:55.644Z,101158.25
2023-02-01T21:49:28.704Z,101172.41
2023-02-01T21:51:57.104Z,101168.88
2023-02-01T21:54:24.835Z,101170.72
2023-02-01T21:56:53.283Z,101170.75
2023-02-01T21:59:21.086Z,101166.31
2023-02-01T22:01:48.804Z,101155.69
2023-02-01T22:04:17.040Z,101159.25
2023-02-01T22:06:45.905Z,101173.38
2023-02-01T22:09:19.829Z,101162.78
2023-02-01T22:11:49.062Z,101175.22
2023-02-01T22:14:17.249Z,101175.25
2023-02-01T22:16:45.716Z,101168.16
2023-02-01T22:19:14.136Z,101170.81
2023-02-01T22:21:45.694Z,101172.50
2023-02-01T22:24:22.350Z,101165.41
2023-02-01T22:26:50.716Z,101171.56
2023-02-01T22:29:19.350Z,101174.25
2023-02-01T22:31:47.705Z,101169.81
2023-02-01T22:34:15.925Z,101168.88
2023-02-01T22:36:44.159Z,101169.75
2023-02-01T22:39:12.114Z,101173.31
2023-02-01T22:41:40.198Z,101179.53
2023-02-01T22:44:08.187Z,101187.50
2023-02-01T22:46:36.157Z,101188.38
2023-02-01T22:49:04.778Z,101184.84
2023-02-01T22:51:33.257Z,101192.03
2023-02-01T22:54:01.505Z,101192.03
2023-02-01T22:56:35.880Z,101199.03
2023-02-01T22:59:06.947Z,101192.03
2023-02-01T23:01:35.397Z,101191.19
2023-02-01T23:04:07.817Z,101188.53
2023-02-01T23:06:36.176Z,101195.63
2023-02-01T23:09:17.489Z,101188.50
2023-02-01T23:11:45.851Z,101196.47
2023-02-01T23:14:15.430Z,101189.44
2023-02-01T23:16:48.439Z,101185.00
2023-02-01T23:19:18.156Z,101184.09
2023-02-01T23:21:46.424Z,101188.50
2023-02-01T23:24:14.235Z,101188.44
2023-02-01T23:26:42.491Z,101182.25
2023-02-01T23:29:18.133Z,101189.31
2023-02-01T23:31:46.065Z,101188.53
2023-02-01T23:34:13.804Z,101188.44
2023-02-01T23:36:41.509Z,101186.63
2023-02-01T23:39:09.319Z,101183.19
2023-02-01T23:41:37.204Z,101184.97
2023-02-01T23:44:05.339Z,101177.03
2023-02-01T23:46:44.419Z,101185.84
2023-02-01T23:49:13.556Z,101192.94
2023-02-01T23:51:42.508Z,101191.19
2023-02-01T23:54:12.046Z,101186.75
2023-02-01T23:56:43.653Z,101187.66
2023-02-01T23:59:21.958Z,101191.16
